Time;durP1;ratioP1;P1;durP2;ratioP2;P2;SDS_P1;SDS_P2;PMS_P1;PMS_P2;Temp;Humidity;BMP_temperature;BMP_pressure;BME280_temperature;BME280_humidity;BME280_pressure;Samples;Min_cycle;Max_cycle;Signal;HPM_P1;HPM_P2
2022/05/06 00:01:27;;;;;;;23.50;17.05;;;10.80;99.90;;;;;;5112002;28;20475;-77
2022/05/06 00:03:53;;;;;;;23.05;16.67;;;10.80;99.90;;;;;;5111884;28;20403;-77
2022/05/06 00:06:20;;;;;;;24.43;16.93;;;10.70;99.90;;;;;;5093742;28;20892;-77
2022/05/06 00:08:46;;;;;;;23.80;17.70;;;10.70;99.90;;;;;;5093412;28;20988;-77
2022/05/06 00:11:12;;;;;;;24.65;17.55;;;10.70;99.90;;;;;;5111929;28;20403;-77
2022/05/06 00:13:37;;;;;;;25.25;18.80;;;10.70;99.90;;;;;;5112005;28;20396;-77
2022/05/06 00:16:06;;;;;;;25.10;18.63;;;10.60;99.90;;;;;;5093840;28;20442;-77
2022/05/06 00:18:32;;;;;;;25.83;18.75;;;10.60;99.90;;;;;;5111707;28;20396;-76
2022/05/06 00:20:58;;;;;;;26.87;20.27;;;10.60;99.90;;;;;;5093075;28;20920;-77
2022/05/06 00:23:24;;;;;;;25.57;19.40;;;10.50;99.90;;;;;;5111741;28;20393;-77
2022/05/06 00:25:50;;;;;;;27.65;20.60;;;10.50;99.90;;;;;;5093462;28;20408;-77
2022/05/06 00:28:15;;;;;;;33.90;24.88;;;10.50;99.90;;;;;;5092743;28;20420;-76
2022/05/06 00:30:41;;;;;;;30.97;23.20;;;10.50;99.90;;;;;;5093729;28;20404;-77
2022/05/06 00:33:09;;;;;;;32.85;23.75;;;10.50;99.90;;;;;;5093299;28;20412;-77
2022/05/06 00:35:38;;;;;;;31.60;22.48;;;10.50;99.90;;;;;;5111750;28;20396;-77
2022/05/06 00:38:04;;;;;;;28.63;21.77;;;10.50;99.90;;;;;;5111210;28;21096;-77
2022/05/06 00:40:30;;;;;;;26.90;21.17;;;10.40;99.90;;;;;;5111039;28;20435;-77
2022/05/06 00:42:56;;;;;;;26.63;21.48;;;10.40;99.90;;;;;;5111206;28;20841;-77
2022/05/06 00:45:22;;;;;;;32.95;24.85;;;10.40;99.90;;;;;;5111160;28;20400;-77
2022/05/06 00:47:49;;;;;;;33.22;24.50;;;10.40;99.90;;;;;;5110848;28;20415;-77
2022/05/06 00:50:16;;;;;;;31.13;23.10;;;10.40;99.90;;;;;;5110835;28;20450;-77
2022/05/06 00:52:42;;;;;;;33.08;23.40;;;10.40;99.90;;;;;;5111151;28;20408;-77
2022/05/06 00:55:08;;;;;;;33.13;23.70;;;10.40;99.90;;;;;;5076054;28;20407;-77
2022/05/06 00:57:35;;;;;;;34.90;23.90;;;10.40;99.90;;;;;;5092488;28;20408;-77
2022/05/06 01:00:18;;;;;;;35.33;24.95;;;10.30;99.90;;;;;;5110585;28;20396;-77
2022/05/06 01:02:44;;;;;;;34.35;24.42;;;10.30;99.90;;;;;;5110905;28;20901;-77
2022/05/06 01:05:11;;;;;;;32.08;23.55;;;10.30;99.90;;;;;;5110998;28;20469;-77
2022/05/06 01:07:37;;;;;;;33.00;23.52;;;10.30;99.90;;;;;;5110738;28;20384;-77
2022/05/06 01:10:03;;;;;;;33.17;23.65;;;10.30;99.90;;;;;;5110420;28;20408;-77
2022/05/06 01:12:29;;;;;;;34.55;24.65;;;10.30;99.90;;;;;;5110739;28;20434;-77
2022/05/06 01:14:54;;;;;;;35.00;23.87;;;10.20;99.90;;;;;;5110499;28;20404;-77
2022/05/06 01:17:22;;;;;;;33.40;23.75;;;10.20;99.90;;;;;;5092325;28;20407;-77
2022/05/06 01:19:47;;;;;;;35.90;24.65;;;10.20;99.90;;;;;;5110197;28;20400;-77
2022/05/06 01:22:14;;;;;;;34.80;25.33;;;10.10;99.90;;;;;;5110499;28;20474;-77
2022/05/06 01:24:39;;;;;;;36.78;25.98;;;10.10;99.90;;;;;;5110611;28;20408;-77
2022/05/06 01:27:11;;;;;;;38.63;26.77;;;10.10;99.90;;;;;;5109994;28;20945;-77
2022/05/06 01:29:38;;;;;;;36.80;25.77;;;10.00;99.90;;;;;;5110533;28;20456;-77
2022/05/06 01:32:04;;;;;;;37.72;25.48;;;9.90;99.90;;;;;;5091894;28;20577;-77
2022/05/06 01:34:32;;;;;;;33.33;24.23;;;10.00;99.90;;;;;;5109869;28;20403;-77
2022/05/06 01:37:02;;;;;;;35.57;25.30;;;9.90;99.90;;;;;;5091802;28;20408;-77
2022/05/06 01:39:35;;;;;;;36.17;24.98;;;9.90;99.90;;;;;;5110252;28;21189;-77
2022/05/06 01:42:04;;;;;;;34.08;25.65;;;9.90;99.90;;;;;;5091337;28;20405;-77
2022/05/06 01:44:36;;;;;;;35.33;24.75;;;9.90;99.90;;;;;;5091638;28;20416;-77
2022/05/06 01:47:05;;;;;;;34.38;24.80;;;9.90;99.90;;;;;;5109946;28;20738;-77
2022/05/06 01:49:32;;;;;;;33.85;24.83;;;9.90;99.90;;;;;;5109959;28;20577;-77
2022/05/06 01:51:59;;;;;;;35.42;24.95;;;9.90;99.90;;;;;;5109829;28;20874;-77
2022/05/06 01:54:25;;;;;;;35.22;24.95;;;9.80;99.90;;;;;;5110179;28;20429;-77
2022/05/06 01:56:51;;;;;;;35.25;25.48;;;9.80;99.90;;;;;;5108664;28;20396;-77
2022/05/06 01:59:17;;;;;;;37.97;25.70;;;9.80;99.90;;;;;;5109195;28;20412;-77
2022/05/06 02:01:42;;;;;;;36.97;26.47;;;9.80;99.90;;;;;;5109575;28;20396;-77
2022/05/06 02:06:52;;;;;;;35.70;25.48;;;9.80;99.90;;;;;;5108950;28;20404;-77
2022/05/06 02:09:18;;;;;;;36.97;25.73;;;9.70;99.90;;;;;;5109490;28;20818;-77
2022/05/06 02:11:43;;;;;;;35.03;25.02;;;9.70;99.90;;;;;;5091343;28;20401;-77
2022/05/06 02:14:09;;;;;;;37.23;26.30;;;9.70;99.90;;;;;;5109405;28;20848;-77
2022/05/06 02:16:34;;;;;;;36.15;25.52;;;9.60;99.90;;;;;;5091069;28;20419;-77
2022/05/06 02:19:00;;;;;;;33.63;25.43;;;9.60;99.90;;;;;;5087786;28;20413;-77
2022/05/06 02:21:25;;;;;;;35.45;26.15;;;9.60;99.90;;;;;;5089173;28;20875;-77
2022/05/06 02:23:51;;;;;;;36.33;25.83;;;9.60;99.90;;;;;;5087686;28;20402;-77
2022/05/06 02:26:17;;;;;;;36.92;26.15;;;9.60;99.90;;;;;;5088722;28;20402;-77
2022/05/06 02:28:42;;;;;;;37.60;25.73;;;9.60;99.90;;;;;;5088391;28;20822;-77
2022/05/06 02:33:52;;;;;;;34.20;24.30;;;9.60;99.90;;;;;;5088706;28;20398;-77
2022/05/06 02:36:17;;;;;;;32.13;23.53;;;9.50;99.90;;;;;;5093005;28;20415;-77
2022/05/06 02:38:43;;;;;;;32.90;23.20;;;9.50;99.90;;;;;;5108180;28;20407;-77
2022/05/06 02:41:09;;;;;;;29.58;22.35;;;9.50;99.90;;;;;;5108542;28;20817;-78
2022/05/06 02:43:36;;;;;;;32.28;23.15;;;9.40;99.90;;;;;;5109276;28;20412;-77
2022/05/06 02:46:01;;;;;;;30.52;22.17;;;9.40;99.90;;;;;;5108489;28;20959;-77
2022/05/06 02:48:27;;;;;;;29.43;22.43;;;9.40;99.90;;;;;;5073491;28;20519;-77
2022/05/06 02:50:52;;;;;;;36.30;23.80;;;9.40;99.90;;;;;;5108434;28;20900;-77
2022/05/06 02:53:21;;;;;;;31.20;23.07;;;9.40;99.90;;;;;;5086900;28;20760;-77
2022/05/06 02:55:47;;;;;;;30.35;22.42;;;9.40;99.90;;;;;;5088071;28;20635;-77
2022/05/06 02:58:12;;;;;;;29.40;21.93;;;9.40;99.90;;;;;;5087330;28;20767;-77
2022/05/06 03:00:38;;;;;;;29.10;21.90;;;9.30;99.90;;;;;;5088655;28;20880;-77
2022/05/06 03:03:04;;;;;;;30.70;21.98;;;9.40;99.90;;;;;;5087198;28;20501;-77
2022/05/06 03:05:30;;;;;;;29.90;22.48;;;9.40;99.90;;;;;;5086891;28;20390;-77
2022/05/06 03:07:56;;;;;;;29.63;21.50;;;9.30;99.90;;;;;;5088019;28;20802;-77
2022/05/06 03:10:22;;;;;;;28.55;20.83;;;9.40;99.90;;;;;;5093255;28;20770;-77
2022/05/06 03:12:47;;;;;;;28.67;20.25;;;9.30;99.90;;;;;;5108406;28;20446;-77
2022/05/06 03:15:14;;;;;;;27.13;20.10;;;9.30;99.90;;;;;;5090488;28;20412;-77
2022/05/06 03:17:39;;;;;;;28.52;20.38;;;9.30;99.90;;;;;;5107675;28;20416;-77
2022/05/06 03:20:08;;;;;;;24.87;18.50;;;9.20;99.90;;;;;;5108317;28;20905;-77
2022/05/06 03:22:44;;;;;;;22.50;17.38;;;9.30;99.90;;;;;;5108515;28;20630;-77
2022/05/06 03:25:10;;;;;;;21.60;17.10;;;9.20;99.90;;;;;;5108081;28;20403;-77
2022/05/06 03:30:20;;;;;;;26.08;18.10;;;9.20;99.90;;;;;;5107254;28;20396;-76
2022/05/06 03:32:46;;;;;;;24.67;18.20;;;9.10;99.90;;;;;;5107299;28;20399;-77
2022/05/06 03:35:12;;;;;;;22.75;17.45;;;9.10;99.90;;;;;;5072439;28;20408;-77
2022/05/06 03:37:38;;;;;;;25.83;18.40;;;9.10;99.90;;;;;;5089440;28;20412;-77
2022/05/06 03:40:05;;;;;;;26.73;17.88;;;9.20;99.90;;;;;;5107541;28;20404;-77
2022/05/06 03:42:30;;;;;;;23.63;17.02;;;9.20;99.90;;;;;;5108155;28;20400;-77
2022/05/06 03:44:56;;;;;;;17.80;13.95;;;9.20;99.90;;;;;;5107996;28;20890;-77
2022/05/06 03:47:21;;;;;;;16.10;12.80;;;9.20;99.90;;;;;;5107620;28;20458;-77
2022/05/06 03:51:20;;;;;;;16.35;12.70;;;9.20;99.90;;;;;;5089831;28;20489;-77
2022/05/06 03:52:34;;;;;;;15.25;12.10;;;9.20;99.90;;;;;;5089911;28;20889;-77
2022/05/06 03:55:00;;;;;;;15.87;12.07;;;9.30;99.90;;;;;;5089912;28;20474;-77
2022/05/06 03:57:26;;;;;;;17.95;13.40;;;9.30;99.90;;;;;;5107807;28;20388;-77
2022/05/06 03:59:51;;;;;;;20.00;14.70;;;9.30;99.90;;;;;;5107615;28;20401;-77
2022/05/06 04:02:17;;;;;;;20.53;15.00;;;9.30;99.90;;;;;;5072714;28;20404;-77
2022/05/06 04:04:42;;;;;;;21.20;15.50;;;9.30;99.90;;;;;;5108165;28;20420;-77
2022/05/06 04:07:08;;;;;;;23.25;17.17;;;9.30;99.90;;;;;;5089539;28;20408;-77
2022/05/06 04:09:34;;;;;;;23.10;17.00;;;9.40;99.90;;;;;;5107698;28;20417;-77
2022/05/06 04:11:59;;;;;;;28.77;19.73;;;9.30;99.90;;;;;;5108021;28;20751;-77
2022/05/06 04:14:25;;;;;;;25.25;18.17;;;9.40;99.90;;;;;;5090012;28;20473;-77
2022/05/06 04:16:51;;;;;;;31.38;21.17;;;9.40;99.90;;;;;;5107707;28;20897;-77
2022/05/06 04:19:17;;;;;;;27.60;20.03;;;9.50;99.90;;;;;;5089658;28;20469;-77
2022/05/06 04:24:26;;;;;;;28.52;20.92;;;9.50;99.90;;;;;;5089895;28;20420;-77
2022/05/06 04:26:52;;;;;;;32.47;23.00;;;9.50;99.90;;;;;;5089503;28;20910;-77
2022/05/06 04:29:17;;;;;;;31.40;22.08;;;9.50;99.90;;;;;;5107686;28;20870;-77
2022/05/06 04:31:43;;;;;;;30.53;21.77;;;9.60;99.90;;;;;;5093459;28;20404;-77
2022/05/06 04:34:09;;;;;;;31.98;23.05;;;9.60;99.90;;;;;;5093320;28;20503;-77
2022/05/06 04:36:37;;;;;;;33.73;24.33;;;9.60;99.90;;;;;;5092750;28;20398;-77
2022/05/06 04:39:02;;;;;;;37.08;24.92;;;9.60;99.90;;;;;;5111088;28;20997;-76
2022/05/06 04:41:28;;;;;;;41.42;28.13;;;9.70;99.90;;;;;;5111469;28;20475;-76
2022/05/06 04:43:53;;;;;;;39.03;26.67;;;9.70;99.90;;;;;;5111119;28;20402;-77
2022/05/06 04:46:19;;;;;;;38.72;27.23;;;9.70;99.90;;;;;;5092491;28;20415;-77
2022/05/06 04:48:45;;;;;;;40.17;27.43;;;9.70;99.90;;;;;;5111002;28;20808;-77
2022/05/06 04:51:10;;;;;;;38.05;26.23;;;9.80;99.90;;;;;;5092752;28;20461;-77
2022/05/06 04:53:36;;;;;;;41.70;26.52;;;9.80;99.90;;;;;;5111362;28;20472;-77
2022/05/06 04:56:02;;;;;;;39.60;26.60;;;9.80;99.90;;;;;;5092535;28;21252;-77
2022/05/06 04:58:29;;;;;;;40.67;27.20;;;9.80;99.90;;;;;;5092530;28;20400;-77
2022/05/06 05:00:54;;;;;;;36.87;25.67;;;9.80;99.90;;;;;;5110701;28;20401;-77
2022/05/06 05:03:21;;;;;;;38.42;25.75;;;9.80;99.90;;;;;;5110976;28;20514;-77
2022/05/06 05:05:48;;;;;;;39.55;25.20;;;9.80;99.90;;;;;;5110756;28;20396;-77
2022/05/06 05:08:13;;;;;;;34.83;23.67;;;9.90;99.90;;;;;;5092126;28;20431;-77
2022/05/06 05:10:39;;;;;;;33.88;24.42;;;9.90;99.90;;;;;;5092273;28;20397;-77
2022/05/06 05:13:05;;;;;;;33.92;22.85;;;9.90;99.90;;;;;;5110274;28;20478;-77
2022/05/06 05:15:31;;;;;;;33.80;23.30;;;10.00;99.90;;;;;;5110343;28;20405;-77
2022/05/06 05:17:57;;;;;;;32.85;22.55;;;10.10;99.90;;;;;;5109513;28;20399;-77
2022/05/06 05:20:23;;;;;;;33.40;23.53;;;10.10;99.90;;;;;;5091119;28;20880;-77
2022/05/06 05:22:48;;;;;;;34.35;22.88;;;10.20;99.90;;;;;;5109513;28;20400;-77
2022/05/06 05:25:14;;;;;;;32.75;23.85;;;10.20;99.90;;;;;;5091360;28;20400;-77
2022/05/06 05:27:40;;;;;;;35.23;24.10;;;10.20;99.90;;;;;;5090974;28;20470;-77
2022/05/06 05:30:08;;;;;;;34.75;23.92;;;10.30;99.90;;;;;;5109053;28;20420;-77
2022/05/06 05:32:34;;;;;;;34.17;23.63;;;10.30;99.90;;;;;;5109479;28;20930;-77
2022/05/06 05:35:00;;;;;;;38.40;25.13;;;10.30;99.90;;;;;;5091455;28;20492;-77
2022/05/06 05:37:26;;;;;;;34.85;24.27;;;10.30;99.90;;;;;;5109357;28;20502;-78
2022/05/06 05:39:51;;;;;;;34.37;24.57;;;10.30;99.90;;;;;;5109046;28;20388;-76
2022/05/06 05:42:24;;;;;;;31.30;23.05;;;10.40;99.90;;;;;;5109092;28;20408;-76
2022/05/06 05:50:19;;;;;;;40.03;26.88;;;10.50;99.90;;;;;;5098549;28;20416;-75
2022/05/06 05:52:45;;;;;;;43.55;29.27;;;10.60;99.90;;;;;;5107182;28;20932;-76
2022/05/06 05:55:11;;;;;;;47.67;30.75;;;10.70;99.90;;;;;;5109578;28;20388;-76
2022/05/06 05:57:37;;;;;;;46.78;31.92;;;10.80;99.90;;;;;;5109736;28;20399;-76
2022/05/06 06:00:05;;;;;;;53.72;36.03;;;10.80;99.90;;;;;;5109549;28;20400;-76
2022/05/06 06:02:30;;;;;;;57.53;37.03;;;10.90;99.90;;;;;;5109406;28;20420;-77
2022/05/06 06:04:56;;;;;;;57.50;38.10;;;10.90;99.90;;;;;;5108099;28;20403;-77
2022/05/06 06:07:22;;;;;;;56.45;36.95;;;11.00;99.90;;;;;;5109384;28;20849;-77
2022/05/06 06:09:47;;;;;;;56.17;37.63;;;11.00;99.90;;;;;;5090944;28;20492;-77
2022/05/06 06:12:13;;;;;;;47.23;32.53;;;11.00;99.90;;;;;;5109859;28;20469;-76
2022/05/06 06:14:39;;;;;;;50.20;33.87;;;11.10;99.90;;;;;;5109299;28;20399;-77
2022/05/06 06:17:04;;;;;;;46.37;32.63;;;11.10;99.90;;;;;;5109049;28;20404;-77
2022/05/06 06:19:30;;;;;;;47.15;32.28;;;11.10;99.90;;;;;;5109236;28;20398;-76
2022/05/06 06:21:55;;;;;;;45.80;31.77;;;11.10;99.90;;;;;;5109321;28;20427;-77
2022/05/06 06:24:21;;;;;;;40.47;29.47;;;11.10;99.90;;;;;;5109124;28;20404;-77
2022/05/06 06:26:46;;;;;;;38.87;28.43;;;11.20;99.90;;;;;;5091076;28;20411;-77
2022/05/06 06:29:12;;;;;;;38.60;28.93;;;11.20;99.90;;;;;;5090989;28;20427;-77
2022/05/06 06:31:38;;;;;;;40.08;29.02;;;11.20;99.90;;;;;;5109220;28;20920;-77
2022/05/06 06:34:04;;;;;;;38.87;29.17;;;11.20;99.90;;;;;;5108827;28;20388;-77
2022/05/06 06:36:30;;;;;;;35.38;28.08;;;11.30;99.90;;;;;;5109010;28;20856;-76
2022/05/06 06:38:56;;;;;;;36.77;28.33;;;11.30;99.90;;;;;;5108955;28;20397;-77
2022/05/06 06:41:22;;;;;;;35.58;27.48;;;11.40;99.90;;;;;;5109205;28;20973;-76
2022/05/06 06:43:48;;;;;;;35.08;27.40;;;11.40;99.90;;;;;;5090718;28;20408;-76
2022/05/06 06:46:14;;;;;;;35.97;27.90;;;11.40;99.90;;;;;;5108311;28;20810;-77
2022/05/06 06:48:40;;;;;;;37.38;28.27;;;11.50;99.90;;;;;;5108767;28;20424;-77
2022/05/06 06:51:06;;;;;;;39.30;28.77;;;11.50;99.90;;;;;;5090462;28;20538;-77
2022/05/06 06:53:31;;;;;;;43.22;30.38;;;11.50;99.90;;;;;;5108439;28;20424;-77
2022/05/06 06:55:57;;;;;;;44.00;31.53;;;11.50;99.90;;;;;;5106764;28;20393;-77
2022/05/06 06:58:25;;;;;;;44.15;31.20;;;11.50;99.90;;;;;;5108022;28;20388;-76
2022/05/06 07:00:50;;;;;;;45.53;31.55;;;11.60;99.90;;;;;;5108320;28;20487;-77
2022/05/06 07:03:16;;;;;;;42.00;31.08;;;11.60;99.90;;;;;;5108556;28;20510;-77
2022/05/06 07:11:52;;;;;;;41.77;30.80;;;11.70;99.90;;;;;;5087308;28;20394;-77
2022/05/06 07:13:57;;;;;;;42.65;32.30;;;12.10;99.90;;;;;;5090315;28;20522;-76
2022/05/06 07:16:22;;;;;;;40.63;31.13;;;12.20;99.90;;;;;;5108507;28;20449;-77
2022/05/06 07:18:49;;;;;;;44.00;33.33;;;12.30;99.90;;;;;;5108215;28;20435;-77
2022/05/06 07:21:15;;;;;;;43.10;32.58;;;12.50;99.90;;;;;;5108299;28;20969;-77
2022/05/06 07:23:41;;;;;;;43.07;33.30;;;12.60;99.90;;;;;;5073512;28;20491;-77
2022/05/06 07:26:06;;;;;;;44.38;33.85;;;12.70;99.90;;;;;;5108228;28;20454;-77
2022/05/06 07:28:32;;;;;;;44.77;32.97;;;12.70;99.90;;;;;;5089227;28;20471;-77
2022/05/06 07:30:58;;;;;;;42.92;33.45;;;12.80;99.90;;;;;;5107135;28;20435;-77
2022/05/06 07:33:23;;;;;;;45.83;34.37;;;12.90;99.90;;;;;;5108160;28;20433;-77
2022/05/06 07:35:49;;;;;;;44.33;34.30;;;13.00;99.90;;;;;;5107553;28;20425;-77
2022/05/06 07:38:14;;;;;;;45.87;34.50;;;13.10;99.90;;;;;;5108162;28;20897;-77
2022/05/06 07:40:40;;;;;;;45.58;33.75;;;13.30;99.90;;;;;;5107944;28;20727;-77
2022/05/06 07:43:05;;;;;;;42.40;33.40;;;13.30;99.90;;;;;;5107502;28;20396;-77
2022/05/06 07:45:32;;;;;;;42.40;32.60;;;13.40;99.90;;;;;;5107604;28;20397;-77
2022/05/06 07:47:58;;;;;;;42.05;32.22;;;13.40;99.90;;;;;;5107753;28;20404;-77
2022/05/06 07:50:26;;;;;;;41.13;31.70;;;13.40;99.90;;;;;;5108346;28;20423;-77
2022/05/06 07:52:52;;;;;;;42.30;31.10;;;13.50;99.90;;;;;;5107751;28;20401;-77
2022/05/06 07:55:19;;;;;;;42.47;31.03;;;13.50;99.90;;;;;;5090209;28;20412;-77
2022/05/06 07:57:46;;;;;;;42.10;30.63;;;13.40;99.90;;;;;;5089284;28;20400;-77
2022/05/06 08:00:13;;;;;;;41.13;29.95;;;13.30;99.90;;;;;;5107911;28;20400;-77
2022/05/06 08:05:27;;;;;;;41.88;30.02;;;13.20;99.90;;;;;;5109096;28;20404;-77
2022/05/06 08:07:53;;;;;;;37.60;28.88;;;13.30;99.90;;;;;;5110280;28;20751;-77
2022/05/06 08:10:19;;;;;;;35.50;28.20;;;13.40;99.90;;;;;;5111282;28;20396;-77
2022/05/06 08:12:45;;;;;;;36.80;28.27;;;13.50;99.90;;;;;;5092615;28;20407;-77
2022/05/06 08:15:10;;;;;;;35.40;27.70;;;13.60;99.90;;;;;;5110713;28;20400;-77
2022/05/06 08:17:39;;;;;;;35.03;27.17;;;13.70;99.90;;;;;;5092591;28;20423;-77
2022/05/06 08:20:09;;;;;;;34.88;27.27;;;13.90;99.90;;;;;;5110816;28;20460;-77
2022/05/06 08:22:36;;;;;;;31.08;24.77;;;14.00;99.90;;;;;;5092500;28;20396;-77
2022/05/06 08:25:04;;;;;;;32.75;26.08;;;14.20;99.90;;;;;;5110358;28;20445;-77
2022/05/06 08:27:42;;;;;;;31.83;24.70;;;14.20;99.90;;;;;;5092298;28;20416;-77
2022/05/06 08:30:10;;;;;;;31.08;24.55;;;14.40;99.90;;;;;;5110557;28;20424;-77
2022/05/06 08:32:36;;;;;;;24.27;21.20;;;14.70;99.90;;;;;;5088203;28;20456;-77
2022/05/06 08:35:03;;;;;;;25.43;21.07;;;15.00;99.90;;;;;;5111551;28;20401;-77
2022/05/06 08:37:29;;;;;;;23.95;20.17;;;15.00;99.90;;;;;;5111394;28;20397;-77
2022/05/06 08:39:55;;;;;;;23.90;20.50;;;15.00;99.90;;;;;;5111258;28;20400;-77
2022/05/06 08:42:21;;;;;;;24.92;19.73;;;15.00;99.90;;;;;;5111707;28;20727;-77
2022/05/06 08:53:07;;;;;;;20.40;17.38;;;15.50;99.90;;;;;;5111170;28;20404;-77
2022/05/06 08:55:33;;;;;;;19.57;17.47;;;15.70;99.90;;;;;;5111307;28;20471;-76
2022/05/06 08:57:59;;;;;;;18.95;16.90;;;15.80;99.90;;;;;;5110636;28;20558;-75
2022/05/06 09:00:28;;;;;;;18.38;16.48;;;15.80;99.90;;;;;;5110842;28;20385;-75
2022/05/06 09:02:54;;;;;;;17.42;15.55;;;15.80;99.90;;;;;;5092588;28;20453;-76
2022/05/06 09:05:21;;;;;;;18.13;16.20;;;15.90;99.90;;;;;;5110904;28;20821;-76
2022/05/06 09:08:03;;;;;;;17.77;15.88;;;15.80;99.90;;;;;;5110627;28;20865;-76
2022/05/06 09:10:29;;;;;;;15.95;14.25;;;15.80;99.90;;;;;;5110691;28;21331;-75
2022/05/06 09:13:00;;;;;;;15.48;13.43;;;15.80;99.90;;;;;;5110893;28;20426;-75
2022/05/06 09:18:19;;;;;;;16.57;14.60;;;15.80;99.90;;;;;;5110379;28;20423;-75
2022/05/06 09:20:45;;;;;;;17.67;15.05;;;16.00;99.90;;;;;;5110662;28;20761;-76
2022/05/06 09:23:29;;;;;;;16.40;14.70;;;16.10;99.90;;;;;;5110401;28;20389;-75
2022/05/06 09:25:55;;;;;;;14.25;12.75;;;16.40;99.90;;;;;;5110502;28;20483;-75
2022/05/06 09:28:32;;;;;;;13.40;12.00;;;16.80;99.90;;;;;;5110237;28;20476;-75
2022/05/06 09:31:02;;;;;;;13.82;12.43;;;17.10;99.90;;;;;;5092146;28;20465;-75
2022/05/06 09:33:29;;;;;;;12.65;11.35;;;17.30;99.90;;;;;;5110519;28;20419;-76
2022/05/06 09:35:56;;;;;;;9.60;8.70;;;17.60;99.90;;;;;;5110185;28;20488;-76
2022/05/06 09:38:24;;;;;;;9.48;8.57;;;17.80;99.90;;;;;;5110166;28;20777;-76
2022/05/06 09:40:50;;;;;;;8.48;7.63;;;18.10;99.90;;;;;;5091822;28;20413;-75
2022/05/06 09:43:18;;;;;;;7.97;7.17;;;18.50;99.90;;;;;;5110076;28;20425;-76
2022/05/06 09:45:44;;;;;;;7.50;6.80;;;18.80;99.90;;;;;;5109765;28;20409;-76
2022/05/06 09:48:14;;;;;;;8.15;7.25;;;19.10;99.90;;;;;;5110163;28;20401;-76
2022/05/06 09:50:47;;;;;;;8.40;7.50;;;19.40;99.90;;;;;;5091756;28;20411;-76
2022/05/06 09:53:17;;;;;;;7.70;6.20;;;19.60;99.90;;;;;;5110160;28;20397;-76
2022/05/06 09:55:45;;;;;;;6.50;5.90;;;19.70;99.90;;;;;;5108735;28;20494;-76
2022/05/06 09:58:12;;;;;;;7.00;6.30;;;19.90;99.90;;;;;;5109337;28;20453;-76
2022/05/06 10:00:40;;;;;;;6.17;5.57;;;20.00;99.90;;;;;;5109773;28;20910;-76
2022/05/06 10:03:07;;;;;;;6.00;5.07;;;20.20;99.90;;;;;;5109627;28;20392;-76
2022/05/06 10:05:34;;;;;;;7.00;5.30;;;20.30;99.80;;;;;;5087800;28;20966;-76
2022/05/06 10:08:07;;;;;;;5.30;4.47;;;20.40;99.40;;;;;;5089304;28;20500;-76
2022/05/06 10:10:38;;;;;;;4.82;4.30;;;20.50;98.50;;;;;;5088982;28;20414;-76
2022/05/06 10:13:14;;;;;;;5.43;4.93;;;20.50;98.30;;;;;;5099111;28;20396;-76
2022/05/06 10:15:40;;;;;;;6.07;4.70;;;20.40;98.20;;;;;;5091356;28;20416;-76
2022/05/06 10:18:07;;;;;;;4.38;3.90;;;20.50;98.00;;;;;;5109570;28;20866;-76
2022/05/06 10:20:36;;;;;;;4.90;3.95;;;20.70;96.30;;;;;;5109552;28;20449;-76
2022/05/06 10:23:07;;;;;;;4.68;4.00;;;20.80;95.80;;;;;;5090979;28;20434;-76
2022/05/06 10:25:42;;;;;;;8.55;4.47;;;20.90;95.90;;;;;;5109248;28;20429;-76
2022/05/06 10:34:07;;;;;;;4.35;3.30;;;21.70;93.60;;;;;;5088765;28;20402;-76
2022/05/06 10:36:50;;;;;;;4.00;3.33;;;21.90;93.60;;;;;;5087800;28;20756;-76
2022/05/06 10:39:32;;;;;;;5.20;4.10;;;22.10;93.30;;;;;;5088713;28;20397;-76
2022/05/06 10:42:17;;;;;;;6.82;4.00;;;22.40;93.30;;;;;;5087318;28;20939;-76
2022/05/06 10:44:48;;;;;;;5.60;3.90;;;22.50;92.30;;;;;;5088461;28;20476;-76
2022/05/06 10:47:16;;;;;;;3.55;3.20;;;22.70;92.80;;;;;;5088558;28;20445;-76
2022/05/06 10:49:43;;;;;;;6.40;4.05;;;22.90;92.00;;;;;;5088255;28;20426;-76
2022/05/06 10:52:18;;;;;;;7.80;4.35;;;23.00;90.90;;;;;;5088654;28;20406;-76
2022/05/06 10:54:47;;;;;;;5.18;4.35;;;22.90;89.70;;;;;;5088898;28;20410;-76
2022/05/06 10:57:14;;;;;;;4.85;4.35;;;22.90;90.00;;;;;;5088385;28;20418;-76
2022/05/06 10:59:49;;;;;;;6.22;4.40;;;23.10;90.00;;;;;;5086996;28;20414;-76
2022/05/06 11:02:16;;;;;;;4.40;4.00;;;23.20;89.20;;;;;;5086964;28;20489;-76
2022/05/06 11:04:49;;;;;;;5.45;3.60;;;23.40;88.90;;;;;;5090279;28;20408;-76
2022/05/06 11:07:15;;;;;;;13.63;3.20;;;23.60;87.90;;;;;;5108551;28;20750;-76
2022/05/06 11:09:40;;;;;;;8.93;3.00;;;23.80;84.80;;;;;;5108090;28;20489;-76
2022/05/06 11:12:06;;;;;;;4.50;3.60;;;23.80;82.50;;;;;;5089667;28;20436;-77
2022/05/06 11:14:33;;;;;;;4.32;3.50;;;23.70;83.40;;;;;;5090207;28;20404;-76
2022/05/06 11:17:18;;;;;;;3.80;3.30;;;23.70;83.60;;;;;;5090102;28;20404;-76
2022/05/06 11:19:44;;;;;;;4.88;4.00;;;24.00;84.50;;;;;;5090440;28;20793;-76
2022/05/06 11:22:10;;;;;;;4.63;4.00;;;24.10;81.20;;;;;;5108173;28;20423;-77
2022/05/06 11:24:36;;;;;;;5.28;3.47;;;24.20;82.00;;;;;;5108527;28;20400;-76
2022/05/06 11:27:18;;;;;;;3.80;3.40;;;24.30;77.00;;;;;;5089884;28;20400;-76
2022/05/06 11:29:58;;;;;;;3.40;2.88;;;24.20;77.00;;;;;;5108230;28;21246;-77
2022/05/06 11:32:29;;;;;;;6.22;3.13;;;24.30;75.40;;;;;;5072747;28;20419;-76
2022/05/06 11:35:09;;;;;;;4.38;3.50;;;24.20;74.80;;;;;;5108222;28;20392;-77
2022/05/06 11:37:39;;;;;;;3.90;3.30;;;24.30;72.90;;;;;;5108299;28;21166;-76
2022/05/06 11:40:32;;;;;;;4.15;3.45;;;24.50;75.10;;;;;;5109408;28;20411;-76
2022/05/06 11:43:19;;;;;;;4.63;3.15;;;24.70;74.20;;;;;;5112223;28;20400;-76
2022/05/06 11:48:42;;;;;;;3.53;2.88;;;24.70;69.30;;;;;;5093983;28;20902;-76
2022/05/06 11:51:10;;;;;;;3.10;2.75;;;24.80;70.20;;;;;;5112276;28;20528;-76
2022/05/06 11:53:37;;;;;;;3.85;3.20;;;24.80;72.10;;;;;;5112535;28;20423;-77
2022/05/06 11:56:03;;;;;;;3.90;3.13;;;24.80;71.10;;;;;;5111641;28;20396;-76
2022/05/06 11:58:29;;;;;;;3.85;2.92;;;25.00;71.80;;;;;;5112373;28;20786;-76
2022/05/06 12:00:54;;;;;;;3.53;2.70;;;25.10;70.40;;;;;;5112334;28;20396;-76
2022/05/06 12:03:21;;;;;;;3.80;3.40;;;25.20;68.20;;;;;;5112254;28;20408;-76
2022/05/06 12:05:59;;;;;;;5.03;3.42;;;25.30;68.30;;;;;;5111707;28;20402;-77
2022/05/06 12:08:26;;;;;;;3.83;3.30;;;25.40;68.40;;;;;;5111233;28;20893;-77
2022/05/06 12:11:04;;;;;;;4.88;3.50;;;25.60;69.20;;;;;;5111850;28;20435;-77
2022/05/06 12:13:32;;;;;;;5.13;3.80;;;25.80;68.50;;;;;;5111926;28;20422;-76
2022/05/06 12:16:08;;;;;;;5.68;5.13;;;25.80;67.50;;;;;;5111735;28;20435;-76
2022/05/06 12:18:34;;;;;;;5.40;4.88;;;25.60;67.90;;;;;;5111922;28;20404;-76
2022/05/06 12:21:15;;;;;;;5.90;5.38;;;25.30;69.80;;;;;;5111095;28;20396;-76
2022/05/06 12:23:48;;;;;;;5.60;5.10;;;25.10;69.00;;;;;;5111863;28;20482;-76
2022/05/06 12:26:25;;;;;;;7.15;5.40;;;25.00;69.30;;;;;;5111386;28;20911;-76
2022/05/06 12:28:51;;;;;;;6.10;5.50;;;25.10;69.80;;;;;;5111406;28;20461;-77
2022/05/06 12:31:34;;;;;;;5.67;5.17;;;25.10;69.70;;;;;;5111325;28;20400;-77
2022/05/06 12:34:06;;;;;;;6.53;5.80;;;25.10;69.60;;;;;;5110814;28;20396;-76
2022/05/06 12:36:32;;;;;;;7.00;5.55;;;24.80;70.10;;;;;;5110981;28;20475;-76
2022/05/06 12:38:58;;;;;;;6.47;5.77;;;24.80;71.50;;;;;;5092397;28;20408;-76
2022/05/06 12:41:32;;;;;;;6.28;5.68;;;25.10;70.90;;;;;;5111162;28;20803;-76
2022/05/06 12:44:21;;;;;;;6.55;5.95;;;25.50;70.70;;;;;;5092654;28;20448;-77
2022/05/06 12:46:47;;;;;;;5.82;5.07;;;25.60;67.70;;;;;;5090696;28;20512;-77
2022/05/06 12:51:58;;;;;;;5.90;5.40;;;26.10;68.70;;;;;;5089832;28;20402;-77
2022/05/06 12:54:25;;;;;;;5.35;4.80;;;26.60;68.10;;;;;;5089888;28;20960;-76
2022/05/06 12:56:51;;;;;;;6.47;5.20;;;26.90;67.60;;;;;;5089787;28;20512;-76
2022/05/06 12:59:17;;;;;;;6.23;5.33;;;27.10;66.10;;;;;;5089172;28;20481;-76
2022/05/06 13:01:43;;;;;;;5.53;5.03;;;27.20;66.10;;;;;;5089701;28;20402;-76
2022/05/06 13:04:08;;;;;;;6.35;5.75;;;27.20;64.80;;;;;;5088277;28;20409;-77
2022/05/06 13:06:34;;;;;;;6.17;5.67;;;27.20;63.90;;;;;;5089212;28;20451;-76
2022/05/06 13:09:00;;;;;;;7.45;5.97;;;27.00;64.90;;;;;;5089494;28;20501;-76
2022/05/06 13:11:26;;;;;;;6.53;5.85;;;26.70;64.90;;;;;;5089176;28;20536;-76
2022/05/06 13:13:52;;;;;;;6.15;5.63;;;26.10;65.70;;;;;;5089574;28;20398;-76
2022/05/06 13:16:18;;;;;;;7.20;6.50;;;25.70;65.50;;;;;;5089674;28;20409;-76
2022/05/06 13:18:44;;;;;;;7.25;6.55;;;25.40;66.60;;;;;;5089571;28;20405;-76
2022/05/06 13:21:10;;;;;;;8.20;7.23;;;25.10;66.30;;;;;;5088483;28;20895;-76
2022/05/06 13:23:35;;;;;;;8.02;7.25;;;24.70;67.30;;;;;;5089345;28;20437;-76
2022/05/06 13:26:03;;;;;;;7.27;6.47;;;24.10;67.90;;;;;;5089546;28;20402;-76